Time;durP1;ratioP1;P1;durP2;ratioP2;P2;SDS_P1;SDS_P2;PMS_P1;PMS_P2;Temp;Humidity;BMP_temperature;BMP_pressure;BME280_temperature;BME280_humidity;BME280_pressure;Samples;Min_cycle;Max_cycle;Signal;HPM_P1;HPM_P2
2023/11/11 00:00:02;;;;;;;8.00;4.60;;;;;;;7.47;75.44;99552.05;105042;1267;60193;-73
2023/11/11 00:02:30;;;;;;;8.20;4.70;;;;;;;7.43;75.44;99550.42;105145;1266;59621;-74
2023/11/11 00:04:58;;;;;;;4.90;4.10;;;;;;;7.39;75.40;99537.27;105175;1269;71857;-75
2023/11/11 00:07:26;;;;;;;6.30;4.10;;;;;;;7.37;75.31;99538.01;105090;1266;69268;-75
2023/11/11 00:09:53;;;;;;;5.60;4.00;;;;;;;7.45;75.10;99535.80;105124;1266;72762;-77
2023/11/11 00:12:21;;;;;;;4.70;3.90;;;;;;;7.47;74.73;99535.92;105139;1270;59685;-76
2023/11/11 00:14:50;;;;;;;8.00;4.00;;;;;;;7.43;74.85;99532.68;105086;1267;60663;-73
2023/11/11 00:17:18;;;;;;;5.70;4.60;;;;;;;7.39;74.85;99536.41;105185;1267;71996;-76
2023/11/11 00:19:47;;;;;;;5.70;4.60;;;;;;;7.33;74.51;99531.88;104988;1266;70279;-75
2023/11/11 00:22:14;;;;;;;5.20;4.10;;;;;;;7.31;74.49;99535.95;105032;1266;71121;-73
2023/11/11 00:24:42;;;;;;;9.60;4.70;;;;;;;7.29;74.36;99523.25;105057;1271;60894;-74
2023/11/11 00:27:11;;;;;;;5.20;4.40;;;;;;;7.38;74.26;99519.45;105048;1265;60054;-73
2023/11/11 00:29:40;;;;;;;5.60;4.20;;;;;;;7.44;74.10;99515.11;105098;1266;71842;-72
2023/11/11 00:32:08;;;;;;;8.70;4.30;;;;;;;7.43;74.03;99517.52;105029;1267;70035;-76
2023/11/11 00:34:37;;;;;;;5.10;4.00;;;;;;;7.40;73.68;99503.38;104930;1269;71306;-73
2023/11/11 00:37:08;;;;;;;6.00;4.30;;;;;;;7.37;73.73;99503.19;104886;1269;59801;-74
2023/11/11 00:39:36;;;;;;;6.60;4.10;;;;;;;7.32;73.66;99497.27;105563;1263;59810;-72
2023/11/11 00:42:04;;;;;;;5.60;3.90;;;;;;;7.26;73.51;99496.97;105428;1260;73002;-73
2023/11/11 00:44:32;;;;;;;8.20;4.20;;;;;;;7.22;73.50;99490.48;105427;1260;70276;-72
2023/11/11 00:46:59;;;;;;;7.10;4.40;;;;;;;7.28;73.33;99487.82;105529;1259;72628;-73
2023/11/11 00:49:27;;;;;;;5.20;4.40;;;;;;;7.31;73.27;99479.10;105521;1260;62554;-74
2023/11/11 00:51:55;;;;;;;7.20;4.60;;;;;;;7.26;73.28;99465.42;105519;1265;60022;-74
2023/11/11 00:54:22;;;;;;;7.00;4.60;;;;;;;7.23;73.37;99466.98;105575;1262;73004;-72
2023/11/11 00:56:51;;;;;;;6.30;4.30;;;;;;;7.20;73.32;99468.19;105454;1265;69305;-73
2023/11/11 00:59:19;;;;;;;6.50;4.90;;;;;;;7.17;73.22;99468.16;105605;1260;71495;-72
2023/11/11 01:01:46;;;;;;;6.40;4.80;;;;;;;7.12;73.25;99454.35;105679;1262;59637;-72
2023/11/11 01:04:14;;;;;;;7.30;5.30;;;;;;;7.17;73.24;99464.27;105534;1257;60205;-72
2023/11/11 01:06:42;;;;;;;10.30;4.90;;;;;;;7.22;73.20;99457.45;105680;1254;72530;-74
2023/11/11 01:09:13;;;;;;;6.80;4.70;;;;;;;7.18;72.98;99447.07;105777;1254;68211;-72
2023/11/11 01:11:41;;;;;;;8.30;4.90;;;;;;;7.13;73.16;99454.10;105873;1259;71380;-73
2023/11/11 01:14:09;;;;;;;9.20;5.60;;;;;;;7.08;73.17;99449.07;105853;1257;60028;-72
2023/11/11 01:16:36;;;;;;;6.60;5.20;;;;;;;7.04;73.21;99449.89;105706;1260;59495;-72
2023/11/11 01:19:04;;;;;;;7.30;5.10;;;;;;;6.99;73.27;99445.27;105682;1254;73188;-71
2023/11/11 01:21:34;;;;;;;7.70;5.00;;;;;;;6.96;73.41;99435.89;105979;1254;70633;-73
2023/11/11 01:24:02;;;;;;;7.00;4.70;;;;;;;7.03;73.37;99442.58;105825;1259;70094;-72
2023/11/11 01:26:29;;;;;;;8.30;5.60;;;;;;;7.07;73.23;99436.31;105550;1260;59733;-71
2023/11/11 01:28:57;;;;;;;9.90;4.70;;;;;;;7.03;73.16;99426.85;105544;1254;60189;-74
2023/11/11 01:31:25;;;;;;;8.80;5.80;;;;;;;6.99;73.32;99422.35;105533;1260;73101;-73
2023/11/11 01:33:52;;;;;;;9.30;5.50;;;;;;;6.96;73.37;99424.47;105509;1255;69539;-74
2023/11/11 01:36:20;;;;;;;8.40;6.00;;;;;;;6.91;73.48;99415.08;105651;1257;72493;-71
2023/11/11 01:38:48;;;;;;;8.20;5.00;;;;;;;6.86;73.68;99410.20;105841;1257;61322;-73
2023/11/11 01:41:15;;;;;;;8.00;5.10;;;;;;;6.93;73.61;99410.31;105747;1254;59695;-74
2023/11/11 01:43:43;;;;;;;6.30;4.90;;;;;;;6.96;73.44;99410.15;105688;1260;71708;-72
2023/11/11 01:46:10;;;;;;;8.70;5.50;;;;;;;6.94;73.84;99406.02;105789;1254;68222;-74
2023/11/11 01:48:39;;;;;;;6.60;4.80;;;;;;;6.91;73.88;99395.21;105466;1256;71455;-74
2023/11/11 01:51:06;;;;;;;8.00;5.50;;;;;;;6.88;74.08;99388.17;105468;1261;59680;-75
2023/11/11 01:53:34;;;;;;;7.70;4.70;;;;;;;6.89;74.24;99385.70;105740;1254;60139;-75
2023/11/11 01:56:03;;;;;;;6.40;4.70;;;;;;;6.99;74.38;99379.27;105757;1254;72004;-77
2023/11/11 01:58:31;;;;;;;8.00;5.10;;;;;;;7.06;74.17;99386.46;105661;1255;69980;-75
2023/11/11 02:00:59;;;;;;;6.80;4.50;;;;;;;7.05;74.28;99377.00;105638;1262;72508;-74
2023/11/11 02:03:26;;;;;;;7.00;4.70;;;;;;;7.05;74.59;99369.83;105635;1260;59621;-76
2023/11/11 02:05:55;;;;;;;9.60;5.10;;;;;;;7.04;74.89;99370.61;105533;1254;60458;-73
2023/11/11 02:08:25;;;;;;;7.20;4.50;;;;;;;7.04;75.09;99358.27;105788;1254;73100;-73
2023/11/11 02:10:54;;;;;;;5.80;4.30;;;;;;;7.15;75.07;99361.61;105880;1254;70971;-76
2023/11/11 02:13:22;;;;;;;6.40;4.40;;;;;;;7.19;75.31;99357.27;105780;1257;72691;-75
2023/11/11 02:15:50;;;;;;;5.90;4.60;;;;;;;7.19;75.40;99341.83;105589;1254;59831;-74
2023/11/11 02:18:17;;;;;;;7.30;5.10;;;;;;;7.18;75.46;99345.22;105932;1254;60101;-73
2023/11/11 02:20:45;;;;;;;9.20;5.40;;;;;;;7.19;75.71;99346.08;105915;1259;73008;-73
2023/11/11 02:23:12;;;;;;;6.20;4.20;;;;;;;7.19;75.93;99337.07;105776;1259;69032;-69
2023/11/11 02:25:40;;;;;;;7.90;4.20;;;;;;;7.29;75.86;99338.84;105726;1259;71586;-74
2023/11/11 02:28:08;;;;;;;7.10;4.70;;;;;;;7.39;75.93;99336.10;105661;1254;59710;-76
2023/11/11 02:30:35;;;;;;;9.20;4.30;;;;;;;7.40;76.02;99329.69;105879;1257;59613;-75
2023/11/11 02:33:03;;;;;;;7.30;4.60;;;;;;;7.38;76.02;99326.28;105872;1254;72929;-76
2023/11/11 02:35:30;;;;;;;7.30;5.00;;;;;;;7.38;76.11;99325.61;105710;1260;69195;-77
2023/11/11 02:38:02;;;;;;;9.00;4.50;;;;;;;7.37;76.21;99325.23;105585;1254;73020;-80
2023/11/11 02:40:29;;;;;;;9.60;4.40;;;;;;;7.38;76.16;99317.38;105593;1254;62059;-74
2023/11/11 02:42:57;;;;;;;8.40;4.30;;;;;;;7.47;76.23;99310.59;105782;1254;59682;-73
2023/11/11 02:45:25;;;;;;;9.10;4.50;;;;;;;7.55;76.09;99308.32;105636;1254;73227;-75
2023/11/11 02:47:53;;;;;;;4.80;4.00;;;;;;;7.55;76.13;99310.27;105890;1254;69145;-76
2023/11/11 02:50:20;;;;;;;6.30;4.60;;;;;;;7.54;76.42;99310.23;105700;1254;72706;-76
2023/11/11 02:52:48;;;;;;;5.20;4.40;;;;;;;7.52;76.57;99312.20;105786;1256;60266;-75
2023/11/11 02:55:18;;;;;;;6.90;4.80;;;;;;;7.51;76.90;99314.64;105909;1254;59932;-75
2023/11/11 02:57:47;;;;;;;5.50;4.30;;;;;;;7.49;76.98;99316.88;105860;1254;71894;-75
2023/11/11 03:00:15;;;;;;;6.30;4.70;;;;;;;7.58;77.16;99317.61;105743;1254;68344;-73
2023/11/11 03:02:42;;;;;;;5.50;4.30;;;;;;;7.63;77.18;99314.39;105823;1259;72845;-75
2023/11/11 03:05:10;;;;;;;7.50;5.30;;;;;;;7.60;77.37;99315.45;105822;1258;60674;-75
2023/11/11 03:07:38;;;;;;;8.70;5.30;;;;;;;7.55;77.63;99322.27;105760;1254;61095;-74
2023/11/11 03:10:07;;;;;;;5.90;4.60;;;;;;;7.51;78.00;99318.44;105804;1254;72375;-76
2023/11/11 03:12:34;;;;;;;7.10;5.10;;;;;;;7.54;78.41;99314.64;105605;1255;69980;-71
2023/11/11 03:15:02;;;;;;;6.20;4.70;;;;;;;7.64;78.18;99307.13;105818;1253;71361;-72
2023/11/11 03:17:29;;;;;;;7.20;5.20;;;;;;;7.63;78.51;99299.09;105601;1260;60423;-74
2023/11/11 03:19:57;;;;;;;7.00;5.10;;;;;;;7.60;78.39;99295.11;105650;1254;60360;-79
2023/11/11 03:22:25;;;;;;;7.40;5.10;;;;;;;7.58;78.87;99292.53;105728;1260;73854;-78
2023/11/11 03:24:53;;;;;;;7.80;4.80;;;;;;;7.59;78.85;99289.66;105874;1254;69070;-79
2023/11/11 03:27:21;;;;;;;5.80;4.80;;;;;;;7.68;79.02;99296.59;105670;1260;71359;-76
2023/11/11 03:29:49;;;;;;;8.10;4.90;;;;;;;7.75;78.96;99283.77;105776;1256;60438;-77
2023/11/11 03:32:16;;;;;;;7.30;4.50;;;;;;;7.76;79.05;99277.52;105998;1256;60510;-77
2023/11/11 03:34:44;;;;;;;6.30;4.90;;;;;;;7.77;79.13;99281.91;105932;1257;73854;-78
2023/11/11 03:37:11;;;;;;;5.50;5.00;;;;;;;7.78;79.25;99280.59;105798;1261;69116;-78
2023/11/11 03:39:39;;;;;;;6.30;4.50;;;;;;;7.80;79.09;99280.27;105849;1254;71612;-77
2023/11/11 03:42:07;;;;;;;6.40;5.30;;;;;;;7.90;78.99;99268.95;105734;1256;60502;-77
2023/11/11 03:44:34;;;;;;;5.50;4.50;;;;;;;7.98;79.28;99271.45;105746;1260;60501;-74
2023/11/11 03:47:02;;;;;;;6.30;4.70;;;;;;;7.96;79.33;99268.30;105713;1255;72425;-75
2023/11/11 03:49:29;;;;;;;5.50;4.90;;;;;;;7.92;79.54;99261.33;105769;1256;68516;-73
2023/11/11 03:51:58;;;;;;;8.70;5.20;;;;;;;7.89;79.56;99259.66;105622;1259;72691;-72
2023/11/11 03:54:26;;;;;;;12.10;4.60;;;;;;;7.88;79.53;99255.23;105581;1257;60704;-73
2023/11/11 03:56:53;;;;;;;6.30;4.80;;;;;;;7.98;79.56;99253.66;105595;1255;60405;-73
2023/11/11 03:59:21;;;;;;;9.30;5.30;;;;;;;8.05;79.37;99250.80;105660;1259;72354;-74
2023/11/11 04:01:51;;;;;;;6.50;5.30;;;;;;;8.02;79.25;99244.51;105681;1259;69178;-76
2023/11/11 04:04:19;;;;;;;6.00;5.10;;;;;;;7.98;78.98;99237.06;105614;1256;72744;-73
2023/11/11 04:06:47;;;;;;;6.90;5.30;;;;;;;7.93;78.97;99230.50;105790;1259;60437;-74
2023/11/11 04:09:15;;;;;;;5.90;4.50;;;;;;;7.90;78.78;99231.34;105595;1256;60974;-74
2023/11/11 04:11:42;;;;;;;6.40;4.30;;;;;;;7.99;78.70;99227.77;105751;1255;71664;-73
2023/11/11 04:14:10;;;;;;;5.90;4.90;;;;;;;8.05;78.40;99240.15;105789;1255;72554;-74
2023/11/11 04:16:37;;;;;;;6.80;5.20;;;;;;;8.02;78.17;99228.33;105777;1254;72700;-74
2023/11/11 04:19:05;;;;;;;6.30;5.40;;;;;;;7.98;78.45;99228.95;105694;1257;60576;-73
2023/11/11 04:21:32;;;;;;;6.80;4.90;;;;;;;7.95;78.51;99225.59;105610;1254;60526;-71
2023/11/11 04:24:00;;;;;;;6.10;4.20;;;;;;;7.92;78.46;99219.66;105687;1256;73810;-73
2023/11/11 04:26:27;;;;;;;5.90;4.60;;;;;;;8.00;78.52;99218.02;105806;1254;70136;-72
2023/11/11 04:28:55;;;;;;;6.70;4.90;;;;;;;8.02;78.17;99213.69;105793;1254;71298;-72
2023/11/11 04:31:23;;;;;;;5.70;4.50;;;;;;;7.99;78.46;99211.20;105922;1259;60415;-75
2023/11/11 04:33:50;;;;;;;5.40;4.60;;;;;;;7.97;78.54;99218.41;105856;1254;60540;-75
2023/11/11 04:36:18;;;;;;;6.80;5.20;;;;;;;7.94;78.50;99210.01;105924;1254;72982;-73
2023/11/11 04:38:45;;;;;;;5.80;4.70;;;;;;;7.99;78.56;99204.62;105957;1254;70073;-72
2023/11/11 04:41:13;;;;;;;5.50;4.60;;;;;;;8.07;78.06;99210.64;105913;1259;71643;-71
2023/11/11 04:43:41;;;;;;;5.80;4.50;;;;;;;8.05;78.28;99205.43;105869;1255;60638;-73
2023/11/11 04:46:09;;;;;;;5.90;4.70;;;;;;;8.02;78.18;99193.86;105882;1254;60033;-70
2023/11/11 04:48:36;;;;;;;6.30;5.00;;;;;;;8.01;78.32;99198.43;105615;1255;73895;-73
2023/11/11 04:51:05;;;;;;;7.50;5.40;;;;;;;8.00;78.40;99193.31;105759;1257;69317;-73
2023/11/11 04:53:33;;;;;;;4.80;4.30;;;;;;;8.03;78.33;99193.67;105949;1254;72774;-71
2023/11/11 04:56:01;;;;;;;5.40;4.00;;;;;;;8.12;78.03;99200.27;105767;1260;60492;-73
2023/11/11 04:58:29;;;;;;;5.40;4.30;;;;;;;8.12;78.04;99193.45;105802;1255;60437;-74
2023/11/11 05:00:56;;;;;;;5.80;4.40;;;;;;;8.07;78.28;99191.04;105782;1254;76272;-72
2023/11/11 05:03:25;;;;;;;5.10;4.50;;;;;;;8.04;78.12;99197.71;105791;1254;70871;-75
2023/11/11 05:05:53;;;;;;;6.90;4.60;;;;;;;8.00;78.26;99199.27;106023;1254;71577;-74
2023/11/11 05:08:20;;;;;;;6.20;4.60;;;;;;;8.07;78.12;99207.01;105790;1259;61720;-75
2023/11/11 05:10:48;;;;;;;5.10;4.10;;;;;;;8.09;78.23;99202.94;105801;1253;60540;-75
2023/11/11 05:13:20;;;;;;;4.60;4.10;;;;;;;8.05;78.22;99207.34;105911;1259;74980;-73
2023/11/11 05:15:59;;;;;;;10.60;4.90;;;;;;;8.01;78.67;99214.17;105930;1258;68734;-75
2023/11/11 05:18:27;;;;;;;5.30;4.50;;;;;;;7.96;78.65;99203.00;105807;1254;73641;-76
2023/11/11 05:20:54;;;;;;;5.20;4.00;;;;;;;7.98;78.68;99203.20;105977;1254;63470;-75
2023/11/11 05:23:23;;;;;;;5.20;4.30;;;;;;;8.07;78.61;99204.33;105887;1258;60435;-75
2023/11/11 05:25:51;;;;;;;4.90;4.00;;;;;;;8.08;78.70;99212.70;105813;1255;72638;-74
2023/11/11 05:28:18;;;;;;;6.40;5.30;;;;;;;8.03;78.64;99210.94;105881;1259;68723;-76
2023/11/11 05:30:47;;;;;;;6.30;4.80;;;;;;;7.98;78.63;99208.52;106014;1254;72736;-76
2023/11/11 05:33:15;;;;;;;4.90;3.80;;;;;;;7.93;78.69;99194.36;105791;1254;61445;-75
2023/11/11 05:35:43;;;;;;;4.00;3.40;;;;;;;8.00;78.94;99197.91;105705;1253;60434;-74
2023/11/11 05:38:10;;;;;;;6.80;4.00;;;;;;;8.05;78.88;99196.39;105767;1253;72585;-74
2023/11/11 05:40:38;;;;;;;4.60;4.10;;;;;;;8.03;78.83;99192.55;105778;1257;69071;-74
2023/11/11 05:43:07;;;;;;;6.60;4.60;;;;;;;7.99;78.77;99186.96;105715;1257;72678;-74
2023/11/11 05:45:35;;;;;;;5.80;4.10;;;;;;;7.97;78.65;99187.59;105790;1253;60479;-74
2023/11/11 05:48:03;;;;;;;6.60;4.40;;;;;;;7.94;78.91;99175.93;105681;1260;62015;-75
2023/11/11 05:50:31;;;;;;;5.80;4.40;;;;;;;8.02;78.38;99171.04;105815;1254;73764;-76
2023/11/11 05:52:59;;;;;;;7.50;4.70;;;;;;;8.06;78.42;99175.29;105638;1262;69714;-75
2023/11/11 05:55:28;;;;;;;7.40;5.00;;;;;;;8.05;78.27;99174.57;105990;1257;71456;-76
2023/11/11 05:57:55;;;;;;;8.50;4.50;;;;;;;8.01;78.59;99168.61;105878;1254;60565;-76
2023/11/11 06:00:23;;;;;;;4.90;4.30;;;;;;;7.99;78.49;99157.77;105719;1261;60441;-80
2023/11/11 06:02:51;;;;;;;6.90;4.30;;;;;;;8.05;78.48;99158.46;105807;1259;73814;-79
2023/11/11 06:05:18;;;;;;;7.00;5.00;;;;;;;8.13;78.03;99161.34;105919;1253;70107;-75
2023/11/11 06:07:46;;;;;;;8.20;5.20;;;;;;;8.10;78.01;99153.94;105831;1259;71383;-74
2023/11/11 06:10:14;;;;;;;5.90;5.20;;;;;;;8.05;78.00;99150.16;105700;1254;60416;-74
2023/11/11 06:12:42;;;;;;;6.30;5.20;;;;;;;8.02;78.32;99148.12;105694;1255;60451;-78
2023/11/11 06:15:10;;;;;;;6.30;4.20;;;;;;;8.02;78.48;99138.89;105747;1253;74112;-76
2023/11/11 06:17:38;;;;;;;7.00;4.80;;;;;;;8.11;78.22;99133.72;105586;1262;68658;-76
2023/11/11 06:20:08;;;;;;;7.00;5.00;;;;;;;8.13;78.07;99138.45;105761;1259;71613;-73
2023/11/11 06:22:35;;;;;;;6.50;4.70;;;;;;;8.09;77.99;99131.48;105858;1253;60619;-74
2023/11/11 06:25:03;;;;;;;6.30;5.00;;;;;;;8.06;78.32;99125.80;105985;1253;60444;-75
2023/11/11 06:27:31;;;;;;;6.70;4.80;;;;;;;8.05;78.16;99124.23;105762;1259;74021;-76
2023/11/11 06:29:59;;;;;;;6.80;4.50;;;;;;;8.15;77.90;99118.29;105723;1254;69383;-72
2023/11/11 06:32:27;;;;;;;8.20;5.20;;;;;;;8.23;77.80;99112.15;105667;1254;71443;-76
2023/11/11 06:34:55;;;;;;;6.10;5.10;;;;;;;8.22;77.86;99108.48;105731;1259;60406;-75
2023/11/11 06:37:25;;;;;;;5.80;4.60;;;;;;;8.20;77.94;99106.06;105748;1253;60923;-76
2023/11/11 06:39:52;;;;;;;4.70;4.00;;;;;;;8.18;77.88;99100.85;105766;1253;73851;-76
2023/11/11 06:42:20;;;;;;;7.10;4.30;;;;;;;8.19;77.96;99105.51;105819;1253;70139;-76
2023/11/11 06:44:47;;;;;;;6.20;3.90;;;;;;;8.27;77.95;99101.64;106187;1259;72727;-77
2023/11/11 06:47:15;;;;;;;11.50;4.90;;;;;;;8.26;77.70;99097.15;105726;1256;60443;-76
2023/11/11 06:49:42;;;;;;;8.00;4.80;;;;;;;8.23;77.77;99100.30;105765;1259;60442;-75
2023/11/11 06:52:10;;;;;;;6.80;4.70;;;;;;;8.21;77.99;99100.15;106008;1259;74339;-75
2023/11/11 06:54:38;;;;;;;4.90;3.50;;;;;;;8.23;78.11;99104.90;105805;1257;68806;-74
2023/11/11 06:57:06;;;;;;;4.60;3.80;;;;;;;8.34;77.92;99111.75;105946;1259;75275;-76
2023/11/11 06:59:33;;;;;;;5.80;4.50;;;;;;;8.43;77.65;99098.46;105727;1259;60577;-76
2023/11/11 07:02:02;;;;;;;7.00;4.30;;;;;;;8.41;77.53;99091.78;105536;1260;60368;-77
2023/11/11 07:04:29;;;;;;;6.10;4.10;;;;;;;8.40;77.32;99094.54;105792;1260;74073;-78
2023/11/11 07:06:57;;;;;;;7.20;4.50;;;;;;;8.38;77.34;99096.50;105755;1253;68508;-78
2023/11/11 07:09:25;;;;;;;4.80;4.10;;;;;;;8.36;77.42;99087.42;105736;1257;72649;-77
2023/11/11 07:11:52;;;;;;;6.50;3.70;;;;;;;8.43;77.44;99084.35;107302;1254;60436;-76
2023/11/11 07:14:20;;;;;;;4.90;3.90;;;;;;;8.49;77.43;99072.04;106056;1253;60546;-73
2023/11/11 07:16:47;;;;;;;6.10;4.20;;;;;;;8.50;77.09;99080.22;105602;1260;72631;-75
2023/11/11 07:19:15;;;;;;;6.40;4.10;;;;;;;8.50;76.93;99066.70;105704;1259;68772;-74
2023/11/11 07:21:43;;;;;;;8.20;4.80;;;;;;;8.48;77.05;99062.13;105664;1254;71423;-75
2023/11/11 07:24:10;;;;;;;4.60;3.90;;;;;;;8.48;77.13;99063.05;105785;1253;60512;-74
2023/11/11 07:26:41;;;;;;;6.10;4.40;;;;;;;8.50;77.12;99064.20;105842;1258;60377;-77
2023/11/11 07:29:09;;;;;;;6.20;4.30;;;;;;;8.60;77.28;99048.39;105713;1253;75036;-74
2023/11/11 07:31:38;;;;;;;6.20;4.30;;;;;;;8.69;77.21;99052.75;105800;1253;70285;-76
2023/11/11 07:34:08;;;;;;;6.20;4.70;;;;;;;8.67;77.24;99054.56;105650;1256;72992;-75
2023/11/11 07:36:35;;;;;;;8.70;5.00;;;;;;;8.61;77.50;99047.58;105586;1257;60539;-77
2023/11/11 07:39:03;;;;;;;5.20;4.40;;;;;;;8.57;77.73;99046.17;105580;1262;60428;-75
2023/11/11 07:41:31;;;;;;;5.80;5.00;;;;;;;8.53;78.13;99043.04;105594;1255;71609;-76
2023/11/11 07:44:04;;;;;;;5.80;4.50;;;;;;;8.59;78.41;99036.20;105650;1256;70280;-77
2023/11/11 07:46:32;;;;;;;6.50;4.50;;;;;;;8.65;78.78;99035.80;105809;1253;71556;-76
2023/11/11 07:49:00;;;;;;;6.40;5.10;;;;;;;8.66;78.76;99030.98;106011;1257;60412;-77
2023/11/11 07:51:28;;;;;;;7.70;6.00;;;;;;;8.64;79.00;99017.55;105957;1258;60398;-76
2023/11/11 07:53:56;;;;;;;7.80;5.50;;;;;;;8.63;78.79;99022.48;106053;1259;72632;-75
2023/11/11 07:56:24;;;;;;;7.20;5.10;;;;;;;8.59;78.58;99014.98;106043;1258;69639;-75
2023/11/11 07:58:53;;;;;;;8.60;5.30;;;;;;;8.63;78.67;99019.23;105965;1253;70475;-75
2023/11/11 08:01:24;;;;;;;8.10;5.80;;;;;;;8.65;78.54;99022.11;105970;1259;60461;-76
2023/11/11 08:03:52;;;;;;;6.80;5.60;;;;;;;8.57;78.83;99013.67;105960;1256;60313;-77
2023/11/11 08:06:19;;;;;;;9.50;6.30;;;;;;;8.51;79.00;99014.33;105951;1254;72896;-76
2023/11/11 08:08:47;;;;;;;8.20;5.80;;;;;;;8.47;79.90;99006.14;105896;1259;70599;-76
2023/11/11 08:11:15;;;;;;;8.00;5.90;;;;;;;8.54;80.07;99002.51;106003;1254;71084;-75
2023/11/11 08:13:42;;;;;;;8.40;6.00;;;;;;;8.60;80.33;99004.61;106072;1254;60567;-76
2023/11/11 08:16:11;;;;;;;7.80;5.50;;;;;;;8.57;80.28;98996.29;106016;1253;60395;-75
2023/11/11 08:18:39;;;;;;;6.70;5.70;;;;;;;8.53;80.56;98997.31;106040;1254;73905;-76
2023/11/11 08:21:19;;;;;;;9.60;5.90;;;;;;;8.50;80.76;98993.11;105802;1259;71441;-78
2023/11/11 08:23:47;;;;;;;7.80;5.40;;;;;;;8.52;81.10;98983.31;105984;1253;74317;-79
2023/11/11 08:26:14;;;;;;;8.40;6.00;;;;;;;8.58;81.37;98986.86;105934;1257;60539;-78
2023/11/11 08:28:42;;;;;;;8.10;6.10;;;;;;;8.55;82.08;98982.58;106003;1256;60504;-76
2023/11/11 08:31:09;;;;;;;8.30;6.40;;;;;;;8.52;82.11;98977.69;105784;1260;73869;-75
2023/11/11 08:33:37;;;;;;;8.10;6.60;;;;;;;8.50;82.35;98974.91;105955;1253;68716;-73
2023/11/11 08:36:05;;;;;;;7.30;6.10;;;;;;;8.50;82.50;98979.98;105971;1259;70362;-75
2023/11/11 08:38:33;;;;;;;8.20;6.20;;;;;;;8.56;82.18;98973.70;106115;1259;60511;-72
2023/11/11 08:41:01;;;;;;;7.90;6.80;;;;;;;8.57;82.54;98976.73;106428;1258;60530;-72
2023/11/11 08:43:29;;;;;;;13.50;7.30;;;;;;;8.51;82.77;98974.41;106881;1259;74351;-76
2023/11/11 08:45:57;;;;;;;9.90;8.00;;;;;;;8.46;83.24;98963.56;107074;1254;70681;-73
2023/11/11 08:48:26;;;;;;;9.90;6.90;;;;;;;8.42;83.26;98964.59;106565;1256;71511;-72
2023/11/11 08:50:55;;;;;;;8.40;6.60;;;;;;;8.51;83.32;98955.42;106783;1253;60553;-74
2023/11/11 08:53:23;;;;;;;10.30;7.30;;;;;;;8.57;83.34;98947.29;106794;1254;60454;-71
2023/11/11 08:55:51;;;;;;;11.10;8.20;;;;;;;8.52;83.88;98946.63;106694;1253;72377;-72
2023/11/11 08:58:18;;;;;;;10.30;7.50;;;;;;;8.46;84.13;98938.21;106622;1253;69423;-72
2023/11/11 09:00:46;;;;;;;10.30;8.00;;;;;;;8.46;84.47;98935.27;106783;1253;72695;-70
2023/11/11 09:03:15;;;;;;;8.60;7.60;;;;;;;8.55;84.85;98938.33;106935;1259;60448;-74
2023/11/11 09:05:43;;;;;;;11.40;8.60;;;;;;;8.60;84.90;98928.35;107161;1256;60400;-70
2023/11/11 09:08:10;;;;;;;11.50;8.20;;;;;;;8.58;84.83;98919.41;106641;1256;72681;-73
2023/11/11 09:10:39;;;;;;;10.80;8.70;;;;;;;8.56;84.58;98912.20;106935;1253;70134;-73
2023/11/11 09:13:15;;;;;;;11.70;8.30;;;;;;;8.55;84.68;98904.98;106716;1257;73099;-71
2023/11/11 09:15:43;;;;;;;10.50;8.50;;;;;;;8.65;84.78;98906.42;106610;1254;60606;-74
2023/11/11 09:18:11;;;;;;;9.80;8.50;;;;;;;8.70;84.85;98899.25;106633;1256;60348;-74
2023/11/11 09:20:41;;;;;;;12.60;9.20;;;;;;;8.63;84.99;98890.91;106516;1256;72692;-72
2023/11/11 09:23:08;;;;;;;12.50;9.90;;;;;;;8.58;85.26;98883.57;106459;1259;69947;-73
2023/11/11 09:25:36;;;;;;;14.60;9.80;;;;;;;8.56;85.62;98876.45;106969;1257;72971;-73
2023/11/11 09:28:04;;;;;;;13.30;10.70;;;;;;;8.60;85.88;98878.23;107330;1261;60697;-73
2023/11/11 09:30:32;;;;;;;11.90;10.40;;;;;;;8.61;86.00;98866.71;107629;1254;61548;-75
2023/11/11 09:33:00;;;;;;;13.40;10.10;;;;;;;8.53;86.00;98861.40;107001;1258;72426;-73
2023/11/11 09:35:27;;;;;;;10.90;9.30;;;;;;;8.45;86.45;98854.61;105988;1253;68878;-75
2023/11/11 09:37:56;;;;;;;13.50;10.90;;;;;;;8.46;86.56;98854.11;107288;1256;71284;-74
2023/11/11 09:40:23;;;;;;;14.30;10.20;;;;;;;8.48;87.09;98836.73;107252;1253;60062;-74
2023/11/11 09:42:51;;;;;;;14.60;12.30;;;;;;;8.43;86.90;98836.61;107598;1253;60431;-75
2023/11/11 09:45:19;;;;;;;14.20;11.70;;;;;;;8.37;87.42;98836.36;108073;1253;72591;-74
2023/11/11 09:47:52;;;;;;;15.00;10.60;;;;;;;8.40;87.30;98828.45;108351;1259;74132;-75
2023/11/11 09:50:22;;;;;;;16.00;12.90;;;;;;;8.39;87.34;98827.33;108115;1253;71493;-74
2023/11/11 09:52:53;;;;;;;16.70;12.50;;;;;;;8.28;87.82;98814.43;108402;1257;60455;-75
2023/11/11 09:55:21;;;;;;;16.20;12.00;;;;;;;8.19;88.34;98811.42;108854;1257;58801;-74
2023/11/11 09:57:49;;;;;;;16.00;13.30;;;;;;;8.24;88.63;98798.75;108358;1254;72705;-74
2023/11/11 10:00:17;;;;;;;20.50;15.70;;;;;;;8.26;89.17;98787.33;107665;1254;69086;-73
2023/11/11 10:02:45;;;;;;;23.40;17.30;;;;;;;8.22;89.70;98777.99;107320;1254;71400;-72
2023/11/11 10:05:13;;;;;;;21.70;17.50;;;;;;;8.20;90.05;98770.36;107485;1253;61746;-73
2023/11/11 10:07:40;;;;;;;18.80;16.20;;;;;;;8.29;90.46;98768.67;108120;1253;60389;-73
2023/11/11 10:10:09;;;;;;;21.50;17.90;;;;;;;8.35;90.42;98760.27;107607;1253;74167;-74
2023/11/11 10:12:39;;;;;;;21.00;16.90;;;;;;;8.29;90.47;98754.72;107758;1254;70155;-73
2023/11/11 10:15:08;;;;;;;20.40;16.00;;;;;;;8.19;90.78;98749.05;107865;1254;73816;-73
2023/11/11 10:17:38;;;;;;;18.90;15.00;;;;;;;8.15;91.38;98739.77;108091;1253;60475;-74
2023/11/11 10:20:13;;;;;;;16.60;13.70;;;;;;;8.20;91.18;98730.54;108473;1253;61272;-75
2023/11/11 10:22:44;;;;;;;19.30;15.50;;;;;;;8.18;91.50;98727.80;109232;1253;72582;-74
2023/11/11 10:25:17;;;;;;;19.00;16.10;;;;;;;8.10;91.94;98725.37;108107;1256;68402;-73
2023/11/11 10:27:51;;;;;;;19.60;14.40;;;;;;;8.06;92.50;98717.50;107951;1256;71235;-75
2023/11/11 10:30:23;;;;;;;14.40;12.90;;;;;;;8.13;92.51;98719.76;108114;1255;60687;-74
2023/11/11 10:32:53;;;;;;;15.50;13.00;;;;;;;8.17;92.62;98714.86;108708;1253;60819;-74
2023/11/11 10:35:21;;;;;;;19.10;14.40;;;;;;;8.09;92.90;98711.02;108361;1260;72605;-76
2023/11/11 10:37:50;;;;;;;16.00;12.60;;;;;;;8.01;93.17;98708.11;108306;1254;72771;-75
2023/11/11 10:40:19;;;;;;;15.00;11.90;;;;;;;8.00;93.48;98700.73;108644;1253;73776;-75
2023/11/11 10:42:48;;;;;;;12.80;11.60;;;;;;;8.02;93.55;98698.09;108852;1253;58911;-77
2023/11/11 10:45:15;;;;;;;13.50;12.10;;;;;;;7.98;93.96;98695.33;108606;1253;60360;-77
2023/11/11 10:47:46;;;;;;;13.00;11.70;;;;;;;7.91;94.82;98688.61;108859;1254;72748;-77
2023/11/11 10:50:14;;;;;;;12.70;11.40;;;;;;;7.96;95.08;98690.34;108572;1253;69018;-78
2023/11/11 10:52:44;;;;;;;12.90;11.00;;;;;;;8.01;95.47;98685.16;107999;1254;71402;-76
2023/11/11 10:55:13;;;;;;;12.00;10.80;;;;;;;7.95;95.58;98683.23;108363;1257;60900;-76
2023/11/11 10:57:41;;;;;;;12.80;11.30;;;;;;;7.88;96.47;98678.04;108709;1254;60455;-77
2023/11/11 11:00:24;;;;;;;12.10;11.00;;;;;;;7.96;96.61;98673.94;108727;1253;72588;-77
2023/11/11 11:02:53;;;;;;;11.90;10.70;;;;;;;8.00;96.49;98666.69;108280;1260;69221;-77
2023/11/11 11:05:52;;;;;;;12.30;10.80;;;;;;;7.95;97.02;98664.98;108535;1255;71404;-78
2023/11/11 11:08:39;;;;;;;13.00;11.10;;;;;;;7.89;96.92;98668.70;108092;1253;436288;-76
2023/11/11 11:13:57;;;;;;;12.50;11.30;;;;;;;7.90;97.49;98647.79;105299;1288;600906;-76
2023/11/11 11:16:30;;;;;;;14.20;12.10;;;;;;;7.80;97.94;98639.70;107520;1266;60411;-78
2023/11/11 11:18:59;;;;;;;11.60;10.40;;;;;;;7.83;98.36;98638.00;107539;1266;59191;-78
2023/11/11 11:21:30;;;;;;;12.30;10.60;;;;;;;7.88;98.75;98634.79;107561;1262;69877;-79
2023/11/11 11:23:56;;;;;;;14.40;12.10;;;;;;;7.90;98.88;98632.70;107213;1262;71525;-76
2023/11/11 11:26:31;;;;;;;13.00;10.80;;;;;;;7.85;99.22;98630.91;106546;1261;196052;-80
2023/11/11 11:29:13;;;;;;;11.20;10.10;;;;;;;7.85;99.53;98625.98;105545;1260;60725;-78
2023/11/11 11:32:12;;;;;;;11.10;9.90;;;;;;;7.85;99.64;98620.46;105468;1261;60188;-76
2023/11/11 11:34:40;;;;;;;11.60;10.50;;;;;;;7.85;99.97;98614.75;105773;1260;72256;-77
2023/11/11 11:37:11;;;;;;;11.70;10.50;;;;;;;7.83;100.00;98610.13;105643;1260;70241;-76